Lincoln, NE (68521)

2:49 AM CDT on September 20, 2014 (GMT -0500)
Fallbrook | Change Station
CLOSE
Current Station
Personal Weather Station
Location: Lincoln, NE
Elevation: 1296 ft
Nearby Weather Stations

Elev 1296 ft 40.88 °N, 96.73 °W | Updated 3 minutes ago

Clear
Clear
73.4 °F
Feels Like 74 °F
N
11.0
Wind Variable Wind from South
Gusts 12.0 mph

Today
High -- | Low -- °F
--% Chance of Precip.
Yesterday
High -- | Low -- °F
Precip. -- in
7:12 AM 7:27 PM
Waning Crescent, 14% visible
Pressure 29.81 in
Visibility 9.0 miles
Clouds Clear
Heat Index 74 °F
Dew Point 67 °F
Humidity 80%
Rainfall 0.00 in
Snow Depth Not available.
UV 0 out of 12
Pollen 7.30 out of 12
Air Quality Not available.
Flu Activity Not available.
METAR KLNK 200654Z AUTO 21011KT 9SM CLR 23/19 A2985 RMK AO2 SLP095 T02330189

More Conditions Fewer Conditions

Pressure 29.81 in
Visibility 9.0 miles
Clouds Clear
Heat Index 74 °F
Dew Point 67 °F
Humidity 80%
Rainfall 0.00 in
Snow Depth Not available.
UV 0 out of 12
Pollen 7.30 out of 12
Air Quality Not available.
Flu Activity Not available.
METAR KLNK 200654Z AUTO 21011KT 9SM CLR 23/19 A2985 RMK AO2 SLP095 T02330189

More Conditions Fewer Conditions

10-Day Weather Forecast

Almanac

Astronomy

Sep. 20, 2014 Rise Set
Actual Time 7:12 AM CDT 7:27 PM CDT
Civil Twilight 6:45 AM CDT 7:54 PM CDT
Nautical Twilight 6:12 AM CDT 8:26 PM CDT
Astronomical Twilight 5:39 AM CDT 8:59 PM CDT
Moon 3:51 AM CDT 5:32 PM CDT
Length of Visible Light 13h 09m
Length of Day
12h 14m
Tomorrow will be 2m 41s shorter.
Waning Crescent, 14% of the Moon is Illuminated
Today
Waning Crescent
Sep 24
New
Oct 1
First Quarter
Oct 8
Full
Oct 15
Last Quarter

Today's Extremes

State Highs State Lows

Community

WunderPhotos

Upload Photos

1,754,793 photos uploaded!

WunderBlogs® & News

Nearby

Snow Depth

Station Depth Elevation
No new snow has been reported.

Earthquake Activity

City Distance Mag. Time & Date
No recent earthquake activity has been reported nearby.
Minimum magnitude displayed is 2.5.

Coastal Water Temperatures

Place Temperature
No Stations Reporting

Nearby Weather Stations